Phoenix, Arizona
Traffic Map
Current Weather Conditions
Phoenix, Arizona
Broken Clouds
Broken Clouds
13°
Feels Like: 13°
Wind Chill: 13° Ceiling: 9500
Heat Index: 13° Visibility: 10mi
Dew Point: 12° Wind: 0mph
Humidity: 93% Direction: ° ()
Pressure: 29.79in Gusts: 0mph
Raw Report DataKPHX 311251Z 00000KT 10SM FEW031 SCT075 BKN095 13/12 A2979 RMK AO2 SLP080 T01280117
Traffic Incident Summary
Active as of:
Severity:
Category:
InformationThere was an issue retrieving the traffic information for this location. Please try a different location or try again shortly.
Advertisements
Track Severe Weather on mobile